createdAt,value
2023-05-18T00:01:17.320Z,97287.34
2023-05-18T00:03:45.402Z,97239.31
2023-05-18T00:06:14.614Z,97222.16
2023-05-18T00:08:42.373Z,97171.78
2023-05-18T00:11:10.361Z,97148.06
2023-05-18T00:13:38.121Z,97127.50
2023-05-18T00:16:06.614Z,97108.72
2023-05-18T00:18:34.690Z,97088.31
2023-05-18T00:21:02.633Z,97078.81
2023-05-18T00:23:33.106Z,97079.78
2023-05-18T00:26:02.460Z,97097.16
2023-05-18T00:28:30.561Z,97138.53
2023-05-18T00:31:00.445Z,97229.88
2023-05-18T00:33:28.556Z,97231.56
2023-05-18T00:35:57.341Z,97209.47
2023-05-18T00:38:25.150Z,97189.03
2023-05-18T00:40:54.335Z,97155.81
2023-05-18T00:43:22.118Z,97108.72
2023-05-18T00:45:49.921Z,97087.50
2023-05-18T00:48:17.883Z,97020.75
2023-05-18T00:50:46.131Z,96994.25
2023-05-18T00:53:14.782Z,96979.78
2023-05-18T00:55:43.176Z,96983.25
2023-05-18T00:58:14.312Z,96975.00
2023-05-18T01:00:44.294Z,96986.88
2023-05-18T01:03:15.310Z,96987.66
2023-05-18T01:05:43.364Z,96989.31
2023-05-18T01:08:11.275Z,96993.59
2023-05-18T01:10:42.159Z,96958.59
2023-05-18T01:13:19.418Z,96921.94
2023-05-18T01:15:52.688Z,96866.41
2023-05-18T01:18:29.183Z,96868.88
2023-05-18T01:21:01.465Z,96853.59
2023-05-18T01:23:53.294Z,96827.28
2023-05-18T01:26:29.974Z,96790.53
2023-05-18T01:29:00.597Z,96803.34
2023-05-18T01:31:28.968Z,96808.13
2023-05-18T01:33:56.865Z,96783.75
2023-05-18T01:36:24.730Z,96790.53
2023-05-18T01:38:53.718Z,96774.25
2023-05-18T01:41:25.758Z,96764.81
2023-05-18T01:43:59.858Z,96745.50
2023-05-18T01:46:37.656Z,96677.25
2023-05-18T01:49:11.331Z,96623.44
2023-05-18T01:51:45.253Z,96696.94
2023-05-18T01:54:18.658Z,96652.59
2023-05-18T01:56:51.888Z,96634.59
2023-05-18T01:59:20.688Z,96668.69
2023-05-18T02:01:48.602Z,96725.69
2023-05-18T02:04:16.792Z,96758.84
2023-05-18T02:06:44.680Z,96701.06
2023-05-18T02:09:12.706Z,96667.72
2023-05-18T02:11:40.490Z,96677.94
2023-05-18T02:14:09.700Z,96629.66
2023-05-18T02:16:37.648Z,96630.09
2023-05-18T02:19:05.558Z,96631.28
2023-05-18T02:21:34.705Z,96603.38
2023-05-18T02:24:02.596Z,96610.41
2023-05-18T02:26:31.084Z,96584.53
2023-05-18T02:28:58.882Z,96568.31
2023-05-18T02:31:29.597Z,96519.91
2023-05-18T02:33:58.205Z,96501.91
2023-05-18T02:36:26.591Z,96486.81
2023-05-18T02:38:54.406Z,96476.50
2023-05-18T02:41:22.863Z,96477.31
2023-05-18T02:43:50.619Z,96478.13
2023-05-18T02:46:18.438Z,96473.88
2023-05-18T02:48:48.053Z,96456.69
2023-05-18T02:51:15.956Z,96471.41
2023-05-18T02:53:44.975Z,96502.88
2023-05-18T02:56:14.497Z,96503.69
2023-05-18T02:58:43.683Z,96479.78
2023-05-18T03:01:12.285Z,96485.84
2023-05-18T03:03:42.304Z,96502.06
2023-05-18T03:06:12.107Z,96523.22
2023-05-18T03:08:41.119Z,96589.63
2023-05-18T03:11:08.943Z,96642.28
2023-05-18T03:13:36.695Z,96699.25
2023-05-18T03:16:05.391Z,96715.50
2023-05-18T03:18:33.303Z,96753.06
2023-05-18T03:21:02.159Z,96784.59
2023-05-18T03:23:31.682Z,96840.78
2023-05-18T03:25:59.469Z,96867.22
2023-05-18T03:28:27.309Z,96923.72
2023-05-18T03:30:55.107Z,96934.75
2023-05-18T03:33:22.992Z,96944.94
2023-05-18T03:35:52.406Z,97011.66
2023-05-18T03:38:20.315Z,97059.22
2023-05-18T03:40:49.719Z,97087.50
2023-05-18T03:43:17.474Z,97101.00
2023-05-18T03:45:45.360Z,97103.78
2023-05-18T03:48:13.231Z,97143.78
2023-05-18T03:50:41.744Z,97183.13
2023-05-18T03:53:09.490Z,97206.97
2023-05-18T03:55:37.300Z,97235.13
2023-05-18T03:58:07.727Z,97282.91
2023-05-18T04:00:36.589Z,97341.19
2023-05-18T04:03:04.971Z,97357.63
2023-05-18T04:05:33.433Z,97417.34
2023-05-18T04:08:01.391Z,97488.53
2023-05-18T04:10:29.267Z,97496.13
2023-05-18T04:12:57.229Z,97534.72
2023-05-18T04:15:26.505Z,97582.59
2023-05-18T04:17:54.393Z,97675.81
2023-05-18T04:20:22.168Z,97742.69
2023-05-18T04:22:50.214Z,97786.59
2023-05-18T04:25:18.775Z,97875.81
2023-05-18T04:27:49.802Z,97943.59
2023-05-18T04:30:22.614Z,98048.44
2023-05-18T04:32:51.928Z,98098.22
2023-05-18T04:35:19.787Z,98147.91
2023-05-18T04:37:47.637Z,98188.44
2023-05-18T04:40:17.220Z,98234.81
2023-05-18T04:42:47.697Z,98300.25
2023-05-18T04:45:17.807Z,98375.94
2023-05-18T04:47:47.180Z,98407.94
2023-05-18T04:50:18.280Z,98488.84
2023-05-18T04:52:49.189Z,98518.94
2023-05-18T04:55:23.005Z,98574.00
2023-05-18T04:57:53.971Z,98626.72
2023-05-18T05:00:22.398Z,98718.75
2023-05-18T05:02:50.354Z,98816.25
2023-05-18T05:05:19.817Z,98884.56
2023-05-18T05:07:55.740Z,98985.63
2023-05-18T05:10:23.894Z,99068.59
2023-05-18T05:12:52.095Z,99041.69
2023-05-18T05:15:20.442Z,99047.13
2023-05-18T05:17:48.564Z,99070.41
2023-05-18T05:20:16.610Z,99117.75
2023-05-18T05:22:45.918Z,99187.09
2023-05-18T05:25:13.994Z,99213.06
2023-05-18T05:27:41.944Z,99273.56
2023-05-18T05:30:10.646Z,99329.38
2023-05-18T05:32:38.438Z,99376.66
2023-05-18T05:35:07.343Z,99424.19
2023-05-18T05:37:38.591Z,99484.91
2023-05-18T05:40:10.020Z,99562.69
2023-05-18T05:42:37.964Z,99561.00
2023-05-18T05:45:06.997Z,99655.63
2023-05-18T05:47:34.842Z,99781.38
2023-05-18T05:50:02.703Z,99838.69
2023-05-18T05:52:30.527Z,99915.06
2023-05-18T05:54:58.590Z,100048.88
2023-05-18T05:57:27.717Z,100158.34
2023-05-18T05:59:55.727Z,100275.03
2023-05-18T06:02:23.630Z,100230.66
2023-05-18T06:04:51.450Z,100239.50
2023-05-18T06:07:20.295Z,100236.72
2023-05-18T06:09:48.705Z,100356.94
2023-05-18T06:12:16.501Z,100412.75
2023-05-18T06:14:45.845Z,100530.41
2023-05-18T06:17:13.644Z,100634.13
2023-05-18T06:19:41.461Z,100641.03
2023-05-18T06:22:09.467Z,100716.94
2023-05-18T06:24:37.438Z,100735.13
2023-05-18T06:27:05.824Z,100846.13
2023-05-18T06:29:33.686Z,100813.72
2023-05-18T06:32:03.053Z,100752.59
2023-05-18T06:34:30.869Z,100810.34
2023-05-18T06:36:59.171Z,100847.81
2023-05-18T06:39:26.951Z,100946.53
2023-05-18T06:41:54.802Z,101000.78
2023-05-18T06:44:22.731Z,100994.69
2023-05-18T06:46:50.473Z,101058.50
2023-05-18T06:49:19.810Z,101250.00
2023-05-18T06:51:47.567Z,101351.59
2023-05-18T06:54:15.383Z,101456.75
2023-05-18T06:56:43.359Z,101435.56
2023-05-18T06:59:11.177Z,101490.75
2023-05-18T07:01:39.148Z,101590.09
2023-05-18T07:04:07.787Z,101503.19
2023-05-18T07:06:38.337Z,101603.03
2023-05-18T07:09:08.073Z,101397.88
2023-05-18T07:11:35.884Z,101306.72
2023-05-18T07:14:05.637Z,101355.84
2023-05-18T07:16:33.739Z,101366.25
2023-05-18T07:19:01.572Z,101299.78
2023-05-18T07:21:29.385Z,101329.59
2023-05-18T07:23:58.644Z,101532.91
2023-05-18T07:26:26.580Z,101493.34
2023-05-18T07:28:54.439Z,101615.28
2023-05-18T07:31:22.597Z,101678.38
2023-05-18T07:33:50.649Z,101523.16
2023-05-18T07:36:18.552Z,101637.94
2023-05-18T07:38:46.505Z,101759.00
2023-05-18T07:41:15.832Z,101829.13
2023-05-18T07:43:43.651Z,102064.72
2023-05-18T07:46:11.492Z,102240.69
2023-05-18T07:48:41.008Z,102260.03
2023-05-18T07:51:09.158Z,102288.16
2023-05-18T07:53:38.101Z,102254.66
2023-05-18T07:56:07.037Z,102277.63
2023-05-18T07:58:36.711Z,102356.03
2023-05-18T08:01:04.964Z,102246.81
2023-05-18T08:03:32.967Z,102365.59
2023-05-18T08:06:01.406Z,102379.66
2023-05-18T08:08:29.929Z,102541.75
2023-05-18T08:10:59.098Z,102552.50
2023-05-18T08:13:28.536Z,102215.81
2023-05-18T08:16:10.337Z,102135.66
2023-05-18T08:18:38.766Z,102220.97
2023-05-18T08:21:08.230Z,102309.84
2023-05-18T08:23:36.083Z,102314.34
2023-05-18T08:26:04.463Z,102315.97
2023-05-18T08:28:32.679Z,102398.81
2023-05-18T08:31:01.894Z,102553.81
2023-05-18T08:33:29.781Z,102779.78
2023-05-18T08:35:57.672Z,102998.91
2023-05-18T08:38:25.606Z,103018.41
2023-05-18T08:41:01.358Z,102943.97
2023-05-18T08:43:33.534Z,103110.09
2023-05-18T08:46:08.671Z,103301.34
2023-05-18T08:48:37.827Z,103566.25
2023-05-18T08:51:07.606Z,103748.19
2023-05-18T08:53:38.990Z,103962.16
2023-05-18T08:56:07.343Z,104172.88
2023-05-18T08:58:37.262Z,104383.38
2023-05-18T09:01:06.934Z,104390.00
2023-05-18T09:03:35.737Z,104439.97
2023-05-18T09:06:04.594Z,104398.81
2023-05-18T09:08:34.389Z,104585.09
2023-05-18T09:11:04.446Z,104571.72
2023-05-18T09:13:32.635Z,104814.31
2023-05-18T09:16:00.490Z,104882.19
2023-05-18T09:18:31.788Z,105021.50
2023-05-18T09:20:59.868Z,104851.69
2023-05-18T09:23:28.162Z,104862.38
2023-05-18T09:25:56.411Z,105010.66
2023-05-18T09:28:32.349Z,105052.69
2023-05-18T09:31:00.248Z,105110.69
2023-05-18T09:33:37.093Z,105240.31
2023-05-18T09:36:06.619Z,105244.66
2023-05-18T09:38:38.384Z,105424.59
2023-05-18T09:41:11.201Z,105671.88
2023-05-18T09:43:39.178Z,105652.19
2023-05-18T09:46:08.129Z,105860.22
2023-05-18T09:48:38.391Z,105733.72
2023-05-18T09:51:07.894Z,105609.91
2023-05-18T09:53:37.371Z,105566.69
2023-05-18T09:56:09.650Z,105389.25
2023-05-18T09:58:38.514Z,105062.63
2023-05-18T10:01:06.598Z,105325.75
2023-05-18T10:03:37.958Z,105657.94
2023-05-18T10:06:07.921Z,105808.59
2023-05-18T10:08:38.727Z,105893.00
2023-05-18T10:11:07.085Z,105526.91
2023-05-18T10:13:36.106Z,105616.41
2023-05-18T10:16:05.909Z,105974.56
2023-05-18T10:18:36.345Z,106205.47
2023-05-18T10:21:06.962Z,105990.59
2023-05-18T10:23:36.589Z,106101.97
2023-05-18T10:26:07.262Z,106206.34
2023-05-18T10:28:40.112Z,106275.59
2023-05-18T10:31:09.217Z,105982.25
2023-05-18T10:33:38.734Z,105824.22
2023-05-18T10:36:10.119Z,106187.97
2023-05-18T10:38:40.661Z,106372.34
2023-05-18T10:41:09.019Z,106211.19
2023-05-18T10:43:37.952Z,106085.38
2023-05-18T10:46:08.541Z,106087.97
2023-05-18T10:48:40.490Z,106006.06
2023-05-18T10:51:09.738Z,106134.56
2023-05-18T10:53:37.865Z,106211.81
2023-05-18T10:56:07.249Z,106221.63
2023-05-18T10:58:38.158Z,106423.16
2023-05-18T11:01:10.274Z,106921.63
2023-05-18T11:03:39.732Z,107049.81
2023-05-18T11:06:10.879Z,107037.09
2023-05-18T11:08:48.160Z,107089.47
2023-05-18T11:11:19.545Z,107226.72
2023-05-18T11:13:50.320Z,107112.81
2023-05-18T11:16:19.493Z,106593.88
2023-05-18T11:18:49.441Z,106167.09
2023-05-18T11:21:29.957Z,106057.25
2023-05-18T11:24:19.138Z,106371.97
2023-05-18T11:26:48.242Z,106477.22
2023-05-18T11:29:20.918Z,106509.59
2023-05-18T11:31:50.523Z,106462.69
2023-05-18T11:34:52.344Z,106520.25
2023-05-18T11:37:51.806Z,106384.22
2023-05-18T11:40:46.777Z,106584.13
2023-05-18T11:43:21.962Z,106550.69
2023-05-18T11:45:59.302Z,106329.09
2023-05-18T11:48:30.036Z,106494.72
2023-05-18T11:50:58.402Z,106552.19
2023-05-18T11:53:28.389Z,106696.50
2023-05-18T11:55:57.111Z,106856.03
2023-05-18T11:58:26.141Z,106912.13
2023-05-18T12:00:54.405Z,107005.72
2023-05-18T12:03:25.151Z,107137.59
2023-05-18T12:05:53.284Z,107431.88
2023-05-18T12:08:21.793Z,107426.09
2023-05-18T12:10:51.707Z,107360.84
2023-05-18T12:13:19.626Z,107023.53
2023-05-18T12:15:47.637Z,107049.56
2023-05-18T12:18:15.614Z,106663.47
2023-05-18T12:20:43.629Z,106928.47
2023-05-18T12:23:11.475Z,106979.84
2023-05-18T12:25:39.772Z,106928.31
2023-05-18T12:28:09.582Z,106820.81
2023-05-18T12:30:38.416Z,106833.41
2023-05-18T12:33:07.103Z,106902.84
2023-05-18T12:35:35.173Z,106964.16
2023-05-18T12:38:03.416Z,107071.63
2023-05-18T12:40:44.332Z,107090.56
2023-05-18T12:43:14.161Z,106721.16
2023-05-18T12:45:44.996Z,106414.69
2023-05-18T12:48:15.068Z,106224.56
2023-05-18T12:50:47.898Z,105992.63
2023-05-18T12:53:15.948Z,105996.97
2023-05-18T12:55:43.736Z,106422.41
2023-05-18T12:58:16.577Z,106681.88
2023-05-18T13:00:47.160Z,107107.06
2023-05-18T13:03:17.804Z,107554.84
2023-05-18T13:05:47.855Z,107304.03
2023-05-18T13:08:18.070Z,107374.69
2023-05-18T13:10:50.814Z,107165.50
2023-05-18T13:13:22.531Z,107345.47
2023-05-18T13:15:52.172Z,107448.59
2023-05-18T13:18:20.641Z,107255.78
2023-05-18T13:20:52.602Z,107229.44
2023-05-18T13:23:22.562Z,107591.47
2023-05-18T13:25:50.749Z,107381.38
2023-05-18T13:28:20.210Z,107688.31
2023-05-18T13:30:51.016Z,107692.78
2023-05-18T13:33:19.443Z,107690.03
2023-05-18T13:35:49.688Z,107767.97
2023-05-18T13:38:17.677Z,108153.66
2023-05-18T13:40:45.712Z,108093.72
2023-05-18T13:43:14.084Z,108271.69
2023-05-18T13:45:42.988Z,108181.66
2023-05-18T13:48:12.531Z,108303.38
2023-05-18T13:50:40.458Z,108087.03
2023-05-18T13:53:08.318Z,107931.66
2023-05-18T13:55:36.948Z,107676.75
2023-05-18T13:58:04.824Z,107703.84
2023-05-18T14:00:33.917Z,107620.34
2023-05-18T14:03:02.769Z,107605.81
2023-05-18T14:05:32.112Z,107755.25
2023-05-18T14:08:00.047Z,107346.63
2023-05-18T14:10:27.814Z,107288.66
2023-05-18T14:12:55.732Z,107191.72
2023-05-18T14:15:23.758Z,107256.72
2023-05-18T14:17:51.698Z,106522.72
2023-05-18T14:20:19.820Z,106441.38
2023-05-18T14:22:49.249Z,106433.19
2023-05-18T14:25:17.180Z,106487.06
2023-05-18T14:27:45.974Z,106611.53
2023-05-18T14:30:14.254Z,106883.91
2023-05-18T14:32:43.245Z,107181.13
2023-05-18T14:35:12.735Z,106725.81
2023-05-18T14:37:40.585Z,106576.06
2023-05-18T14:40:10.840Z,106757.25
2023-05-18T14:42:38.697Z,106949.38
2023-05-18T14:45:07.354Z,106926.81
2023-05-18T14:47:35.374Z,107169.84
2023-05-18T14:50:03.789Z,107139.22
2023-05-18T14:52:31.652Z,106837.25
2023-05-18T14:54:59.380Z,106967.28
2023-05-18T14:57:28.622Z,106917.41
2023-05-18T14:59:56.480Z,106956.28
2023-05-18T15:02:24.319Z,106811.75
2023-05-18T15:04:52.290Z,106736.78
2023-05-18T15:07:20.103Z,106665.34
2023-05-18T15:09:47.896Z,106769.88
2023-05-18T15:12:17.168Z,106845.78
2023-05-18T15:14:46.396Z,106934.03
2023-05-18T15:17:15.052Z,106724.66
2023-05-18T15:19:42.984Z,106739.88
2023-05-18T15:22:10.927Z,106650.59
2023-05-18T15:24:38.703Z,106458.41
2023-05-18T15:27:07.180Z,106053.34
2023-05-18T15:29:35.010Z,105958.88
2023-05-18T15:32:05.204Z,106181.72
2023-05-18T15:34:33.801Z,106394.50
2023-05-18T15:37:01.785Z,106385.09
2023-05-18T15:39:31.430Z,106300.34
2023-05-18T15:41:59.291Z,106446.19
2023-05-18T15:44:28.774Z,106188.66
2023-05-18T15:46:57.803Z,105885.63
2023-05-18T15:49:27.107Z,105508.75
2023-05-18T15:51:54.937Z,105365.19
2023-05-18T15:54:22.900Z,105345.44
2023-05-18T15:56:51.013Z,105379.41
2023-05-18T15:59:18.826Z,105295.22
2023-05-18T16:01:46.817Z,105522.69
2023-05-18T16:04:14.748Z,105683.22
2023-05-18T16:06:43.955Z,105594.28
2023-05-18T16:09:12.198Z,105396.22
2023-05-18T16:11:40.099Z,105077.38
2023-05-18T16:14:08.103Z,104964.59
2023-05-18T16:16:36.172Z,104846.63
2023-05-18T16:19:05.521Z,104681.59
2023-05-18T16:21:33.580Z,104461.19
2023-05-18T16:24:02.803Z,104264.94
2023-05-18T16:26:30.730Z,104085.03
2023-05-18T16:28:58.527Z,103679.81
2023-05-18T16:31:26.433Z,103327.88
2023-05-18T16:33:54.509Z,103003.75
2023-05-18T16:36:24.185Z,102652.34
2023-05-18T16:38:54.126Z,102351.63
2023-05-18T16:41:23.855Z,102126.13
2023-05-18T16:43:51.825Z,101989.00
2023-05-18T16:46:19.983Z,101900.13
2023-05-18T16:48:48.015Z,101799.84
2023-05-18T16:51:16.061Z,101786.78
2023-05-18T16:53:44.115Z,101742.84
2023-05-18T16:56:12.322Z,101759.44
2023-05-18T16:58:41.655Z,101724.28
2023-05-18T17:01:19.361Z,101701.56
2023-05-18T17:03:55.031Z,101642.50
2023-05-18T17:06:23.245Z,101596.25
2023-05-18T17:08:57.456Z,101576.81
2023-05-18T17:11:26.782Z,101531.22
2023-05-18T17:13:57.821Z,101491.97
2023-05-18T17:16:26.755Z,101464.41
2023-05-18T17:18:54.989Z,101417.13
2023-05-18T17:21:23.878Z,101390.69
2023-05-18T17:23:51.696Z,101370.34
2023-05-18T17:26:20.068Z,101362.69
2023-05-18T17:28:48.164Z,101347.69
2023-05-18T17:31:17.873Z,101308.31
2023-05-18T17:33:47.346Z,101251.22
2023-05-18T17:36:17.205Z,101207.63
2023-05-18T17:38:45.170Z,101172.59
2023-05-18T17:41:14.971Z,101109.56
2023-05-18T17:43:43.817Z,101092.88
2023-05-18T17:46:11.743Z,101106.88
2023-05-18T17:48:41.064Z,101071.06
2023-05-18T17:51:09.141Z,101029.97
2023-05-18T17:53:41.830Z,101015.75
2023-05-18T17:56:10.232Z,100993.25
2023-05-18T17:58:39.290Z,100961.50
2023-05-18T18:01:08.625Z,100939.75
2023-05-18T18:03:37.458Z,100901.25
2023-05-18T18:06:07.444Z,100852.25
2023-05-18T18:08:36.755Z,100782.56
2023-05-18T18:11:06.380Z,100761.44
2023-05-18T18:13:36.290Z,100713.31
2023-05-18T18:16:04.340Z,100685.53
2023-05-18T18:18:32.792Z,100645.13
2023-05-18T18:21:00.813Z,100586.75
2023-05-18T18:23:29.984Z,100545.16
2023-05-18T18:25:57.994Z,100499.78
2023-05-18T18:28:25.888Z,100417.84
2023-05-18T18:30:53.788Z,100333.41
2023-05-18T18:33:21.671Z,100258.41
2023-05-18T18:35:49.925Z,100193.19
2023-05-18T18:38:17.796Z,100105.19
2023-05-18T18:40:48.864Z,100055.00
2023-05-18T18:43:16.969Z,100001.91
2023-05-18T18:45:44.994Z,99931.53
2023-05-18T18:48:12.910Z,99868.25
2023-05-18T18:50:40.746Z,99806.50
2023-05-18T18:53:08.540Z,99752.78
2023-05-18T18:55:36.412Z,99690.13
2023-05-18T18:58:05.602Z,99642.59
2023-05-18T19:00:33.380Z,99593.97
2023-05-18T19:03:01.404Z,99553.34
2023-05-18T19:05:30.819Z,99497.03
2023-05-18T19:07:58.849Z,99446.19
2023-05-18T19:10:26.787Z,99404.34
2023-05-18T19:12:54.602Z,99347.09
2023-05-18T19:15:23.901Z,99307.38
2023-05-18T19:17:53.866Z,99271.97
2023-05-18T19:20:22.396Z,99228.63
2023-05-18T19:22:50.173Z,99187.13
2023-05-18T19:25:17.978Z,99139.72
2023-05-18T19:27:46.024Z,99095.59
2023-05-18T19:30:16.534Z,99042.75
2023-05-18T19:32:45.777Z,99009.13
2023-05-18T19:35:13.649Z,98991.94
2023-05-18T19:37:41.495Z,98984.81
2023-05-18T19:40:09.869Z,99074.63
2023-05-18T19:42:37.741Z,99096.13
2023-05-18T19:45:07.166Z,99123.09
2023-05-18T19:47:35.240Z,99141.25
2023-05-18T19:50:06.179Z,99096.97
2023-05-18T19:52:34.010Z,99054.66
2023-05-18T19:55:02.040Z,98989.03
2023-05-18T19:57:30.790Z,98962.38
2023-05-18T19:59:59.146Z,98945.16
2023-05-18T20:02:27.076Z,98991.66
2023-05-18T20:04:55.025Z,98989.03
2023-05-18T20:07:24.251Z,99009.69
2023-05-18T20:09:54.438Z,99034.66
2023-05-18T20:12:22.272Z,99008.97
2023-05-18T20:14:51.244Z,98968.22
2023-05-18T20:17:19.187Z,98933.03
2023-05-18T20:19:50.851Z,98847.38
2023-05-18T20:22:18.767Z,98782.91
2023-05-18T20:24:48.948Z,98725.91
2023-05-18T20:27:17.054Z,98679.44
2023-05-18T20:29:45.026Z,98655.34
2023-05-18T20:32:12.781Z,98627.63
2023-05-18T20:34:41.587Z,98613.25
2023-05-18T20:37:11.051Z,98604.47
2023-05-18T20:39:39.895Z,98596.66
2023-05-18T20:42:12.553Z,98580.25
2023-05-18T20:44:40.413Z,98534.84
2023-05-18T20:47:08.617Z,98494.19
2023-05-18T20:49:36.606Z,98439.91
2023-05-18T20:52:04.586Z,98383.81
2023-05-18T20:54:32.515Z,98338.34
2023-05-18T20:57:00.567Z,98246.31
2023-05-18T20:59:29.669Z,98246.44
2023-05-18T21:01:57.520Z,98249.06
2023-05-18T21:04:25.363Z,98221.56
2023-05-18T21:06:53.677Z,98192.25
2023-05-18T21:09:21.654Z,98188.75
2023-05-18T21:11:49.724Z,98186.13
2023-05-18T21:14:18.280Z,98182.94
2023-05-18T21:16:47.813Z,98137.06
2023-05-18T21:19:16.475Z,98095.94
2023-05-18T21:21:44.320Z,98062.47
2023-05-18T21:24:12.147Z,98025.41
2023-05-18T21:26:40.660Z,98009.31
2023-05-18T21:29:09.886Z,97973.22
2023-05-18T21:31:37.740Z,97936.28
2023-05-18T21:34:08.386Z,97880.00
2023-05-18T21:36:36.225Z,97839.34
2023-05-18T21:39:06.396Z,97834.50
2023-05-18T21:41:35.423Z,97809.53
2023-05-18T21:44:05.023Z,97782.91
2023-05-18T21:46:34.162Z,97751.31
2023-05-18T21:49:02.610Z,97721.91
2023-05-18T21:51:32.413Z,97691.81
2023-05-18T21:54:00.831Z,97679.91
2023-05-18T21:56:29.384Z,97670.66
2023-05-18T21:58:58.013Z,97669.00
2023-05-18T22:01:25.943Z,97658.75
2023-05-18T22:03:54.330Z,97620.75
2023-05-18T22:06:22.453Z,97617.59
2023-05-18T22:08:51.915Z,97612.47
2023-05-18T22:11:19.721Z,97591.69
2023-05-18T22:13:47.473Z,97578.97
2023-05-18T22:16:15.571Z,97605.53
2023-05-18T22:18:43.369Z,97582.28
2023-05-18T22:21:11.776Z,97578.97
2023-05-18T22:23:39.830Z,97560.97
2023-05-18T22:26:08.959Z,97534.41
2023-05-18T22:28:37.003Z,97516.53
2023-05-18T22:31:04.936Z,97504.47
2023-05-18T22:33:32.872Z,97475.44
2023-05-18T22:36:00.954Z,97453.31
2023-05-18T22:38:28.860Z,97426.19
2023-05-18T22:40:56.937Z,97410.69
2023-05-18T22:43:26.432Z,97398.50
2023-05-18T22:45:54.347Z,97371.28
2023-05-18T22:48:22.181Z,97349.03
2023-05-18T22:50:50.036Z,97307.69
2023-05-18T22:53:17.955Z,97295.91
2023-05-18T22:55:46.267Z,97299.53
2023-05-18T22:58:14.345Z,97280.28
2023-05-18T23:00:43.482Z,97260.00
2023-05-18T23:03:11.509Z,97226.72
2023-05-18T23:05:43.406Z,97196.69
2023-05-18T23:08:14.174Z,97178.91
2023-05-18T23:10:44.303Z,97142.63
2023-05-18T23:13:16.278Z,97135.41
2023-05-18T23:15:47.665Z,97098.53
2023-05-18T23:18:15.536Z,97073.97
2023-05-18T23:20:43.586Z,97070.50
2023-05-18T23:23:11.473Z,97061.97
2023-05-18T23:25:39.281Z,97041.53
2023-05-18T23:28:07.400Z,97009.78
2023-05-18T23:30:35.206Z,96989.38
2023-05-18T23:33:05.085Z,96965.50
2023-05-18T23:35:33.475Z,96951.03
2023-05-18T23:38:06.399Z,96937.53
2023-05-18T23:40:34.773Z,96918.78
2023-05-18T23:43:03.260Z,96910.22
2023-05-18T23:45:31.755Z,96913.84
2023-05-18T23:48:00.168Z,96908.44
2023-05-18T23:50:30.348Z,96900.69
2023-05-18T23:53:02.115Z,96883.75
2023-05-18T23:55:30.830Z,96864.16
2023-05-18T23:57:59.643Z,96848.72
